sensor_id;sensor_type;location;lat;lon;timestamp;P1;durP1;ratioP1;P2;durP2;ratioP2
29382;SDS011;16365;51.598;7.668;2022-12-11T00:01:23;64.53;;;25.40;;
29382;SDS011;16365;51.598;7.668;2022-12-11T00:03:49;66.80;;;27.70;;
29382;SDS011;16365;51.598;7.668;2022-12-11T00:06:17;63.60;;;26.50;;
29382;SDS011;16365;51.598;7.668;2022-12-11T00:08:46;71.47;;;27.90;;
29382;SDS011;16365;51.598;7.668;2022-12-11T00:11:16;64.38;;;28.00;;
29382;SDS011;16365;51.598;7.668;2022-12-11T00:13:42;68.18;;;28.35;;
29382;SDS011;16365;51.598;7.668;2022-12-11T00:16:09;61.55;;;26.95;;
29382;SDS011;16365;51.598;7.668;2022-12-11T00:18:36;73.80;;;28.13;;
29382;SDS011;16365;51.598;7.668;2022-12-11T00:21:03;74.95;;;28.73;;
29382;SDS011;16365;51.598;7.668;2022-12-11T00:23:33;73.15;;;28.35;;
29382;SDS011;16365;51.598;7.668;2022-12-11T00:26:03;74.38;;;29.73;;
29382;SDS011;16365;51.598;7.668;2022-12-11T00:28:31;74.60;;;31.77;;
29382;SDS011;16365;51.598;7.668;2022-12-11T00:30:58;79.22;;;31.67;;
29382;SDS011;16365;51.598;7.668;2022-12-11T00:33:25;76.82;;;30.25;;
29382;SDS011;16365;51.598;7.668;2022-12-11T00:35:52;79.10;;;30.60;;
29382;SDS011;16365;51.598;7.668;2022-12-11T00:38:19;80.25;;;29.88;;
29382;SDS011;16365;51.598;7.668;2022-12-11T00:43:14;71.60;;;30.02;;
29382;SDS011;16365;51.598;7.668;2022-12-11T00:45:42;79.75;;;31.90;;
29382;SDS011;16365;51.598;7.668;2022-12-11T00:48:10;76.25;;;30.33;;
29382;SDS011;16365;51.598;7.668;2022-12-11T00:50:37;59.85;;;24.98;;
29382;SDS011;16365;51.598;7.668;2022-12-11T00:53:04;74.80;;;30.33;;
29382;SDS011;16365;51.598;7.668;2022-12-11T00:55:34;74.13;;;29.45;;
29382;SDS011;16365;51.598;7.668;2022-12-11T00:58:02;75.63;;;28.77;;
29382;SDS011;16365;51.598;7.668;2022-12-11T01:00:29;68.32;;;25.10;;
29382;SDS011;16365;51.598;7.668;2022-12-11T01:02:55;71.00;;;27.52;;
29382;SDS011;16365;51.598;7.668;2022-12-11T01:05:22;70.93;;;26.02;;
29382;SDS011;16365;51.598;7.668;2022-12-11T01:07:48;72.20;;;27.52;;
29382;SDS011;16365;51.598;7.668;2022-12-11T01:10:15;69.40;;;26.45;;
29382;SDS011;16365;51.598;7.668;2022-12-11T01:12:52;68.75;;;25.10;;
29382;SDS011;16365;51.598;7.668;2022-12-11T01:15:21;72.20;;;27.27;;
29382;SDS011;16365;51.598;7.668;2022-12-11T01:17:50;72.97;;;27.15;;
29382;SDS011;16365;51.598;7.668;2022-12-11T01:20:17;76.80;;;28.88;;
29382;SDS011;16365;51.598;7.668;2022-12-11T01:22:45;73.97;;;28.67;;
29382;SDS011;16365;51.598;7.668;2022-12-11T01:25:11;75.05;;;27.85;;
29382;SDS011;16365;51.598;7.668;2022-12-11T01:27:38;74.35;;;28.17;;
29382;SDS011;16365;51.598;7.668;2022-12-11T01:30:05;74.07;;;27.50;;
29382;SDS011;16365;51.598;7.668;2022-12-11T01:32:33;78.55;;;28.73;;
29382;SDS011;16365;51.598;7.668;2022-12-11T01:35:05;69.03;;;26.67;;
29382;SDS011;16365;51.598;7.668;2022-12-11T01:37:33;76.28;;;28.10;;
29382;SDS011;16365;51.598;7.668;2022-12-11T01:40:00;76.15;;;26.85;;
29382;SDS011;16365;51.598;7.668;2022-12-11T01:42:27;71.97;;;26.58;;
29382;SDS011;16365;51.598;7.668;2022-12-11T01:47:53;73.50;;;26.30;;
29382;SDS011;16365;51.598;7.668;2022-12-11T01:50:22;68.18;;;24.80;;
29382;SDS011;16365;51.598;7.668;2022-12-11T01:52:49;74.78;;;26.15;;
29382;SDS011;16365;51.598;7.668;2022-12-11T01:55:17;75.35;;;25.38;;
29382;SDS011;16365;51.598;7.668;2022-12-11T01:57:46;63.92;;;23.88;;
29382;SDS011;16365;51.598;7.668;2022-12-11T02:00:14;68.97;;;24.10;;
29382;SDS011;16365;51.598;7.668;2022-12-11T02:02:41;75.55;;;25.33;;
29382;SDS011;16365;51.598;7.668;2022-12-11T02:05:08;75.65;;;25.60;;
29382;SDS011;16365;51.598;7.668;2022-12-11T02:07:54;66.05;;;24.38;;
29382;SDS011;16365;51.598;7.668;2022-12-11T02:10:27;65.13;;;23.83;;
29382;SDS011;16365;51.598;7.668;2022-12-11T02:13:06;73.22;;;24.83;;
29382;SDS011;16365;51.598;7.668;2022-12-11T02:15:47;66.57;;;24.67;;
29382;SDS011;16365;51.598;7.668;2022-12-11T02:21:23;64.35;;;24.95;;
29382;SDS011;16365;51.598;7.668;2022-12-11T02:23:59;60.92;;;24.23;;
29382;SDS011;16365;51.598;7.668;2022-12-11T02:33:09;63.55;;;23.75;;
29382;SDS011;16365;51.598;7.668;2022-12-11T02:35:24;60.58;;;22.77;;
29382;SDS011;16365;51.598;7.668;2022-12-11T02:37:56;64.65;;;22.05;;
29382;SDS011;16365;51.598;7.668;2022-12-11T02:40:27;61.92;;;22.95;;
29382;SDS011;16365;51.598;7.668;2022-12-11T02:42:56;61.90;;;22.20;;
29382;SDS011;16365;51.598;7.668;2022-12-11T02:45:27;63.63;;;22.98;;
29382;SDS011;16365;51.598;7.668;2022-12-11T02:47:55;62.33;;;23.63;;
29382;SDS011;16365;51.598;7.668;2022-12-11T02:50:26;59.08;;;23.95;;
29382;SDS011;16365;51.598;7.668;2022-12-11T02:52:54;64.72;;;23.80;;
29382;SDS011;16365;51.598;7.668;2022-12-11T02:55:23;63.55;;;24.52;;
29382;SDS011;16365;51.598;7.668;2022-12-11T02:58:13;65.40;;;25.27;;
29382;SDS011;16365;51.598;7.668;2022-12-11T03:00:43;63.17;;;23.48;;
29382;SDS011;16365;51.598;7.668;2022-12-11T03:03:10;62.13;;;19.27;;
29382;SDS011;16365;51.598;7.668;2022-12-11T03:05:37;61.03;;;23.90;;
29382;SDS011;16365;51.598;7.668;2022-12-11T03:08:05;67.07;;;24.98;;
29382;SDS011;16365;51.598;7.668;2022-12-11T03:10:31;68.43;;;25.27;;
29382;SDS011;16365;51.598;7.668;2022-12-11T03:12:58;64.65;;;24.42;;
29382;SDS011;16365;51.598;7.668;2022-12-11T03:15:28;68.97;;;25.75;;
29382;SDS011;16365;51.598;7.668;2022-12-11T03:25:54;70.20;;;25.83;;
29382;SDS011;16365;51.598;7.668;2022-12-11T03:28:28;74.72;;;24.92;;
29382;SDS011;16365;51.598;7.668;2022-12-11T03:31:02;76.32;;;27.10;;
29382;SDS011;16365;51.598;7.668;2022-12-11T03:33:35;80.97;;;28.15;;
29382;SDS011;16365;51.598;7.668;2022-12-11T03:36:05;88.45;;;29.70;;
29382;SDS011;16365;51.598;7.668;2022-12-11T03:38:38;93.40;;;30.35;;
29382;SDS011;16365;51.598;7.668;2022-12-11T03:41:10;90.25;;;30.10;;
29382;SDS011;16365;51.598;7.668;2022-12-11T03:43:40;91.25;;;29.42;;
29382;SDS011;16365;51.598;7.668;2022-12-11T03:46:06;97.55;;;31.42;;
29382;SDS011;16365;51.598;7.668;2022-12-11T03:48:35;91.53;;;30.48;;
29382;SDS011;16365;51.598;7.668;2022-12-11T03:51:04;99.50;;;32.33;;
29382;SDS011;16365;51.598;7.668;2022-12-11T03:53:32;98.72;;;30.80;;
29382;SDS011;16365;51.598;7.668;2022-12-11T03:56:01;94.63;;;31.52;;
29382;SDS011;16365;51.598;7.668;2022-12-11T03:58:30;95.28;;;29.10;;
29382;SDS011;16365;51.598;7.668;2022-12-11T04:00:57;103.70;;;31.88;;
29382;SDS011;16365;51.598;7.668;2022-12-11T04:03:24;84.05;;;28.92;;
29382;SDS011;16365;51.598;7.668;2022-12-11T04:05:51;94.20;;;30.85;;
29382;SDS011;16365;51.598;7.668;2022-12-11T04:08:19;88.95;;;31.67;;
29382;SDS011;16365;51.598;7.668;2022-12-11T04:13:14;99.15;;;30.23;;
29382;SDS011;16365;51.598;7.668;2022-12-11T04:15:40;103.07;;;31.85;;
29382;SDS011;16365;51.598;7.668;2022-12-11T04:18:07;87.70;;;28.60;;
29382;SDS011;16365;51.598;7.668;2022-12-11T04:20:52;116.60;;;32.35;;
29382;SDS011;16365;51.598;7.668;2022-12-11T04:23:38;100.20;;;31.67;;
29382;SDS011;16365;51.598;7.668;2022-12-11T04:26:23;93.95;;;29.77;;
29382;SDS011;16365;51.598;7.668;2022-12-11T04:28:50;92.65;;;31.63;;
29382;SDS011;16365;51.598;7.668;2022-12-11T04:31:18;99.82;;;31.10;;
29382;SDS011;16365;51.598;7.668;2022-12-11T04:33:46;105.10;;;32.25;;
29382;SDS011;16365;51.598;7.668;2022-12-11T04:36:13;107.00;;;30.85;;
29382;SDS011;16365;51.598;7.668;2022-12-11T04:38:40;95.55;;;30.10;;
29382;SDS011;16365;51.598;7.668;2022-12-11T04:41:09;102.22;;;31.77;;
29382;SDS011;16365;51.598;7.668;2022-12-11T04:43:37;102.75;;;31.60;;
29382;SDS011;16365;51.598;7.668;2022-12-11T04:46:13;94.70;;;30.38;;
29382;SDS011;16365;51.598;7.668;2022-12-11T04:48:42;107.90;;;31.98;;
29382;SDS011;16365;51.598;7.668;2022-12-11T04:51:09;101.85;;;30.50;;
29382;SDS011;16365;51.598;7.668;2022-12-11T04:53:36;104.35;;;32.08;;
29382;SDS011;16365;51.598;7.668;2022-12-11T04:56:06;110.20;;;33.70;;
29382;SDS011;16365;51.598;7.668;2022-12-11T04:58:35;101.88;;;31.23;;
29382;SDS011;16365;51.598;7.668;2022-12-11T05:01:08;107.10;;;32.08;;
29382;SDS011;16365;51.598;7.668;2022-12-11T05:03:43;107.20;;;31.42;;
29382;SDS011;16365;51.598;7.668;2022-12-11T05:06:10;106.63;;;31.97;;
29382;SDS011;16365;51.598;7.668;2022-12-11T05:08:38;115.72;;;33.47;;
29382;SDS011;16365;51.598;7.668;2022-12-11T05:11:06;100.07;;;32.60;;
29382;SDS011;16365;51.598;7.668;2022-12-11T05:13:35;114.00;;;32.53;;
29382;SDS011;16365;51.598;7.668;2022-12-11T05:16:02;96.07;;;29.98;;
29382;SDS011;16365;51.598;7.668;2022-12-11T05:18:30;96.57;;;31.92;;
29382;SDS011;16365;51.598;7.668;2022-12-11T05:20:58;90.63;;;31.25;;
29382;SDS011;16365;51.598;7.668;2022-12-11T05:25:52;96.60;;;29.52;;
29382;SDS011;16365;51.598;7.668;2022-12-11T05:28:24;102.78;;;30.85;;
29382;SDS011;16365;51.598;7.668;2022-12-11T05:30:55;102.28;;;32.33;;
29382;SDS011;16365;51.598;7.668;2022-12-11T05:33:25;101.00;;;30.88;;
29382;SDS011;16365;51.598;7.668;2022-12-11T05:35:52;86.40;;;30.92;;
29382;SDS011;16365;51.598;7.668;2022-12-11T05:38:19;108.90;;;33.00;;
29382;SDS011;16365;51.598;7.668;2022-12-11T05:40:59;105.07;;;33.95;;
29382;SDS011;16365;51.598;7.668;2022-12-11T05:43:30;107.45;;;31.42;;
29382;SDS011;16365;51.598;7.668;2022-12-11T05:46:15;105.97;;;32.95;;
29382;SDS011;16365;51.598;7.668;2022-12-11T05:48:43;98.28;;;32.33;;
29382;SDS011;16365;51.598;7.668;2022-12-11T05:51:11;112.05;;;34.38;;
29382;SDS011;16365;51.598;7.668;2022-12-11T05:53:39;115.07;;;33.20;;
29382;SDS011;16365;51.598;7.668;2022-12-11T05:56:11;110.25;;;34.10;;
29382;SDS011;16365;51.598;7.668;2022-12-11T05:58:39;96.35;;;31.48;;
29382;SDS011;16365;51.598;7.668;2022-12-11T06:01:07;101.68;;;32.90;;
29382;SDS011;16365;51.598;7.668;2022-12-11T06:03:35;102.75;;;33.10;;
29382;SDS011;16365;51.598;7.668;2022-12-11T06:06:03;105.70;;;36.10;;
29382;SDS011;16365;51.598;7.668;2022-12-11T06:08:31;95.45;;;31.77;;
29382;SDS011;16365;51.598;7.668;2022-12-11T06:10:58;101.05;;;32.17;;
29382;SDS011;16365;51.598;7.668;2022-12-11T06:13:25;88.72;;;29.80;;
29382;SDS011;16365;51.598;7.668;2022-12-11T06:15:52;84.03;;;30.75;;
29382;SDS011;16365;51.598;7.668;2022-12-11T06:18:19;92.85;;;32.28;;
29382;SDS011;16365;51.598;7.668;2022-12-11T06:20:45;101.90;;;32.55;;
29382;SDS011;16365;51.598;7.668;2022-12-11T06:23:14;87.03;;;30.65;;
29382;SDS011;16365;51.598;7.668;2022-12-11T06:25:40;95.05;;;32.00;;
29382;SDS011;16365;51.598;7.668;2022-12-11T06:28:07;86.75;;;30.55;;
29382;SDS011;16365;51.598;7.668;2022-12-11T06:30:34;95.40;;;31.55;;
29382;SDS011;16365;51.598;7.668;2022-12-11T06:33:04;98.70;;;30.55;;
29382;SDS011;16365;51.598;7.668;2022-12-11T06:35:30;88.75;;;29.95;;
29382;SDS011;16365;51.598;7.668;2022-12-11T06:38:03;89.15;;;30.58;;
29382;SDS011;16365;51.598;7.668;2022-12-11T06:40:30;93.68;;;31.52;;
29382;SDS011;16365;51.598;7.668;2022-12-11T06:42:56;97.78;;;31.73;;
29382;SDS011;16365;51.598;7.668;2022-12-11T06:45:22;93.07;;;32.08;;
29382;SDS011;16365;51.598;7.668;2022-12-11T06:47:49;87.43;;;30.20;;
29382;SDS011;16365;51.598;7.668;2022-12-11T06:50:15;92.47;;;31.98;;
29382;SDS011;16365;51.598;7.668;2022-12-11T06:52:42;92.90;;;30.58;;
29382;SDS011;16365;51.598;7.668;2022-12-11T06:55:08;84.13;;;31.08;;
29382;SDS011;16365;51.598;7.668;2022-12-11T06:57:35;88.90;;;29.77;;
29382;SDS011;16365;51.598;7.668;2022-12-11T07:00:02;88.05;;;30.35;;
29382;SDS011;16365;51.598;7.668;2022-12-11T07:02:29;96.60;;;30.58;;
29382;SDS011;16365;51.598;7.668;2022-12-11T07:04:55;87.60;;;28.55;;
29382;SDS011;16365;51.598;7.668;2022-12-11T07:07:22;96.78;;;32.03;;
29382;SDS011;16365;51.598;7.668;2022-12-11T07:09:48;90.22;;;30.50;;
29382;SDS011;16365;51.598;7.668;2022-12-11T07:12:15;90.60;;;30.88;;
29382;SDS011;16365;51.598;7.668;2022-12-11T07:14:42;77.78;;;27.15;;
29382;SDS011;16365;51.598;7.668;2022-12-11T07:17:09;80.10;;;27.92;;
29382;SDS011;16365;51.598;7.668;2022-12-11T07:19:35;84.00;;;29.58;;
29382;SDS011;16365;51.598;7.668;2022-12-11T07:22:02;76.22;;;27.20;;
29382;SDS011;16365;51.598;7.668;2022-12-11T07:24:28;81.00;;;28.45;;
29382;SDS011;16365;51.598;7.668;2022-12-11T07:26:54;74.20;;;29.23;;
29382;SDS011;16365;51.598;7.668;2022-12-11T07:29:21;81.32;;;27.95;;
29382;SDS011;16365;51.598;7.668;2022-12-11T07:31:47;81.40;;;29.75;;
29382;SDS011;16365;51.598;7.668;2022-12-11T07:34:13;73.95;;;27.45;;
29382;SDS011;16365;51.598;7.668;2022-12-11T07:36:40;73.75;;;28.33;;
29382;SDS011;16365;51.598;7.668;2022-12-11T07:39:06;86.13;;;29.42;;
29382;SDS011;16365;51.598;7.668;2022-12-11T07:41:34;83.63;;;28.73;;
29382;SDS011;16365;51.598;7.668;2022-12-11T07:44:00;76.10;;;28.23;;
29382;SDS011;16365;51.598;7.668;2022-12-11T07:46:28;80.25;;;29.08;;
29382;SDS011;16365;51.598;7.668;2022-12-11T07:48:56;77.55;;;29.45;;
29382;SDS011;16365;51.598;7.668;2022-12-11T07:51:24;81.97;;;28.63;;
29382;SDS011;16365;51.598;7.668;2022-12-11T07:53:54;82.65;;;28.65;;
29382;SDS011;16365;51.598;7.668;2022-12-11T07:56:22;80.88;;;28.77;;
29382;SDS011;16365;51.598;7.668;2022-12-11T07:58:49;83.93;;;29.23;;
29382;SDS011;16365;51.598;7.668;2022-12-11T08:01:17;83.78;;;30.80;;
29382;SDS011;16365;51.598;7.668;2022-12-11T08:03:45;73.32;;;26.23;;
29382;SDS011;16365;51.598;7.668;2022-12-11T08:06:12;84.43;;;28.63;;
29382;SDS011;16365;51.598;7.668;2022-12-11T08:08:39;73.05;;;27.85;;
29382;SDS011;16365;51.598;7.668;2022-12-11T08:11:08;86.20;;;27.30;;
29382;SDS011;16365;51.598;7.668;2022-12-11T08:13:37;78.43;;;27.80;;
29382;SDS011;16365;51.598;7.668;2022-12-11T08:16:04;75.18;;;29.08;;
29382;SDS011;16365;51.598;7.668;2022-12-11T08:18:32;81.63;;;28.27;;
29382;SDS011;16365;51.598;7.668;2022-12-11T08:21:10;90.97;;;30.98;;
29382;SDS011;16365;51.598;7.668;2022-12-11T08:23:38;83.55;;;30.58;;
29382;SDS011;16365;51.598;7.668;2022-12-11T08:26:06;87.30;;;31.10;;
29382;SDS011;16365;51.598;7.668;2022-12-11T08:28:34;87.60;;;32.22;;
29382;SDS011;16365;51.598;7.668;2022-12-11T08:31:03;87.47;;;30.88;;
29382;SDS011;16365;51.598;7.668;2022-12-11T08:33:30;93.57;;;31.60;;
29382;SDS011;16365;51.598;7.668;2022-12-11T08:35:57;87.90;;;30.92;;
29382;SDS011;16365;51.598;7.668;2022-12-11T08:38:23;71.45;;;28.80;;
29382;SDS011;16365;51.598;7.668;2022-12-11T08:40:50;82.22;;;30.75;;
29382;SDS011;16365;51.598;7.668;2022-12-11T08:43:17;82.68;;;30.02;;
29382;SDS011;16365;51.598;7.668;2022-12-11T08:45:44;75.68;;;28.45;;
29382;SDS011;16365;51.598;7.668;2022-12-11T08:48:11;80.78;;;30.73;;
29382;SDS011;16365;51.598;7.668;2022-12-11T08:50:38;77.20;;;30.25;;
29382;SDS011;16365;51.598;7.668;2022-12-11T08:53:04;86.68;;;29.13;;
29382;SDS011;16365;51.598;7.668;2022-12-11T08:55:31;81.30;;;29.08;;
29382;SDS011;16365;51.598;7.668;2022-12-11T08:57:58;83.90;;;30.23;;
29382;SDS011;16365;51.598;7.668;2022-12-11T09:00:24;72.90;;;27.45;;
29382;SDS011;16365;51.598;7.668;2022-12-11T09:02:51;85.60;;;32.40;;
29382;SDS011;16365;51.598;7.668;2022-12-11T09:05:17;87.15;;;32.85;;
29382;SDS011;16365;51.598;7.668;2022-12-11T09:07:44;85.63;;;31.45;;
29382;SDS011;16365;51.598;7.668;2022-12-11T09:10:10;87.05;;;31.73;;
29382;SDS011;16365;51.598;7.668;2022-12-11T09:12:37;87.55;;;31.30;;
29382;SDS011;16365;51.598;7.668;2022-12-11T09:15:03;79.30;;;29.83;;
29382;SDS011;16365;51.598;7.668;2022-12-11T09:17:30;86.53;;;29.88;;
29382;SDS011;16365;51.598;7.668;2022-12-11T09:19:58;74.68;;;28.77;;
29382;SDS011;16365;51.598;7.668;2022-12-11T09:22:25;76.13;;;29.55;;
29382;SDS011;16365;51.598;7.668;2022-12-11T09:24:51;87.20;;;32.90;;
29382;SDS011;16365;51.598;7.668;2022-12-11T09:27:18;81.38;;;30.65;;
29382;SDS011;16365;51.598;7.668;2022-12-11T09:29:46;85.07;;;30.70;;
29382;SDS011;16365;51.598;7.668;2022-12-11T09:32:12;84.60;;;31.17;;
29382;SDS011;16365;51.598;7.668;2022-12-11T09:34:39;79.10;;;29.60;;
29382;SDS011;16365;51.598;7.668;2022-12-11T09:37:05;81.68;;;29.80;;
29382;SDS011;16365;51.598;7.668;2022-12-11T09:39:32;80.45;;;28.80;;
29382;SDS011;16365;51.598;7.668;2022-12-11T09:42:15;80.07;;;31.00;;
29382;SDS011;16365;51.598;7.668;2022-12-11T09:49:53;51.95;;;22.52;;
29382;SDS011;16365;51.598;7.668;2022-12-11T09:52:32;39.93;;;17.07;;
29382;SDS011;16365;51.598;7.668;2022-12-11T09:55:05;48.83;;;21.15;;
29382;SDS011;16365;51.598;7.668;2022-12-11T09:57:45;49.53;;;21.60;;
29382;SDS011;16365;51.598;7.668;2022-12-11T10:00:25;46.35;;;20.75;;
29382;SDS011;16365;51.598;7.668;2022-12-11T10:03:21;45.28;;;20.38;;
29382;SDS011;16365;51.598;7.668;2022-12-11T10:08:59;97.00;;;36.90;;
29382;SDS011;16365;51.598;7.668;2022-12-11T10:11:49;61.42;;;27.63;;
29382;SDS011;16365;51.598;7.668;2022-12-11T10:14:28;56.58;;;25.10;;
29382;SDS011;16365;51.598;7.668;2022-12-11T10:17:03;48.78;;;21.55;;
29382;SDS011;16365;51.598;7.668;2022-12-11T10:19:36;46.00;;;20.60;;
29382;SDS011;16365;51.598;7.668;2022-12-11T10:22:07;47.97;;;21.35;;
29382;SDS011;16365;51.598;7.668;2022-12-11T10:24:43;46.42;;;20.13;;
29382;SDS011;16365;51.598;7.668;2022-12-11T10:27:37;39.38;;;18.40;;
29382;SDS011;16365;51.598;7.668;2022-12-11T10:30:13;40.60;;;19.15;;
29382;SDS011;16365;51.598;7.668;2022-12-11T10:35:34;42.55;;;19.45;;
29382;SDS011;16365;51.598;7.668;2022-12-11T10:40:43;36.78;;;17.80;;
29382;SDS011;16365;51.598;7.668;2022-12-11T10:43:11;32.65;;;16.25;;
29382;SDS011;16365;51.598;7.668;2022-12-11T10:45:37;37.45;;;17.17;;
29382;SDS011;16365;51.598;7.668;2022-12-11T10:48:05;31.77;;;16.55;;
29382;SDS011;16365;51.598;7.668;2022-12-11T10:50:35;35.60;;;17.25;;
29382;SDS011;16365;51.598;7.668;2022-12-11T10:53:02;36.25;;;16.05;;
29382;SDS011;16365;51.598;7.668;2022-12-11T10:55:36;30.92;;;15.73;;
29382;SDS011;16365;51.598;7.668;2022-12-11T10:58:15;42.53;;;16.63;;
29382;SDS011;16365;51.598;7.668;2022-12-11T11:00:43;33.83;;;15.48;;
29382;SDS011;16365;51.598;7.668;2022-12-11T11:03:19;31.80;;;16.23;;
29382;SDS011;16365;51.598;7.668;2022-12-11T11:05:47;29.77;;;14.63;;
29382;SDS011;16365;51.598;7.668;2022-12-11T11:08:16;33.33;;;16.35;;
29382;SDS011;16365;51.598;7.668;2022-12-11T11:10:49;32.90;;;15.73;;
29382;SDS011;16365;51.598;7.668;2022-12-11T11:13:24;32.40;;;15.48;;
29382;SDS011;16365;51.598;7.668;2022-12-11T11:16:06;32.05;;;15.55;;
29382;SDS011;16365;51.598;7.668;2022-12-11T11:18:38;37.30;;;17.08;;
29382;SDS011;16365;51.598;7.668;2022-12-11T11:21:14;32.55;;;16.88;;
29382;SDS011;16365;51.598;7.668;2022-12-11T11:23:47;32.55;;;15.75;;
29382;SDS011;16365;51.598;7.668;2022-12-11T11:26:19;39.65;;;16.85;;
29382;SDS011;16365;51.598;7.668;2022-12-11T11:28:49;30.38;;;15.10;;
29382;SDS011;16365;51.598;7.668;2022-12-11T11:31:20;29.90;;;13.68;;
29382;SDS011;16365;51.598;7.668;2022-12-11T11:33:59;30.13;;;14.52;;
29382;SDS011;16365;51.598;7.668;2022-12-11T11:36:30;38.75;;;19.25;;
29382;SDS011;16365;51.598;7.668;2022-12-11T11:39:02;36.85;;;18.20;;
29382;SDS011;16365;51.598;7.668;2022-12-11T11:41:49;33.78;;;16.67;;
29382;SDS011;16365;51.598;7.668;2022-12-11T11:44:25;31.80;;;16.75;;
29382;SDS011;16365;51.598;7.668;2022-12-11T11:47:02;35.63;;;15.77;;
29382;SDS011;16365;51.598;7.668;2022-12-11T11:52:23;32.63;;;15.27;;
29382;SDS011;16365;51.598;7.668;2022-12-11T11:57:46;37.33;;;17.48;;
29382;SDS011;16365;51.598;7.668;2022-12-11T12:00:22;32.30;;;15.80;;
29382;SDS011;16365;51.598;7.668;2022-12-11T12:03:05;32.35;;;15.60;;
29382;SDS011;16365;51.598;7.668;2022-12-11T12:13:53;34.33;;;17.10;;
29382;SDS011;16365;51.598;7.668;2022-12-11T12:20:03;30.50;;;15.02;;
29382;SDS011;16365;51.598;7.668;2022-12-11T12:22:50;28.77;;;14.68;;
29382;SDS011;16365;51.598;7.668;2022-12-11T12:25:30;33.85;;;14.23;;
29382;SDS011;16365;51.598;7.668;2022-12-11T12:30:54;28.13;;;14.85;;
29382;SDS011;16365;51.598;7.668;2022-12-11T12:33:30;32.35;;;15.82;;
29382;SDS011;16365;51.598;7.668;2022-12-11T12:36:23;32.42;;;15.85;;
29382;SDS011;16365;51.598;7.668;2022-12-11T12:39:01;33.22;;;15.30;;
29382;SDS011;16365;51.598;7.668;2022-12-11T12:41:54;31.35;;;14.25;;
29382;SDS011;16365;51.598;7.668;2022-12-11T12:47:43;30.50;;;14.85;;
29382;SDS011;16365;51.598;7.668;2022-12-11T12:50:22;28.92;;;15.23;;
29382;SDS011;16365;51.598;7.668;2022-12-11T12:52:51;27.55;;;14.57;;
29382;SDS011;16365;51.598;7.668;2022-12-11T12:55:29;27.55;;;14.63;;
29382;SDS011;16365;51.598;7.668;2022-12-11T12:57:58;28.98;;;13.98;;
29382;SDS011;16365;51.598;7.668;2022-12-11T13:05:39;28.75;;;13.63;;
29382;SDS011;16365;51.598;7.668;2022-12-11T13:08:08;30.73;;;14.80;;
29382;SDS011;16365;51.598;7.668;2022-12-11T13:10:37;28.08;;;14.63;;
29382;SDS011;16365;51.598;7.668;2022-12-11T13:13:25;29.98;;;14.38;;
29382;SDS011;16365;51.598;7.668;2022-12-11T13:18:42;35.55;;;15.25;;
29382;SDS011;16365;51.598;7.668;2022-12-11T13:23:52;29.13;;;14.70;;
29382;SDS011;16365;51.598;7.668;2022-12-11T13:26:29;30.90;;;14.27;;
29382;SDS011;16365;51.598;7.668;2022-12-11T13:28:58;28.48;;;14.50;;
29382;SDS011;16365;51.598;7.668;2022-12-11T13:31:29;29.63;;;13.82;;
29382;SDS011;16365;51.598;7.668;2022-12-11T13:34:02;27.08;;;13.50;;
29382;SDS011;16365;51.598;7.668;2022-12-11T13:36:34;27.83;;;14.32;;
29382;SDS011;16365;51.598;7.668;2022-12-11T13:39:22;30.67;;;14.35;;
29382;SDS011;16365;51.598;7.668;2022-12-11T13:41:51;30.17;;;14.35;;
29382;SDS011;16365;51.598;7.668;2022-12-11T13:44:28;29.27;;;14.75;;
29382;SDS011;16365;51.598;7.668;2022-12-11T13:46:58;29.67;;;14.70;;
29382;SDS011;16365;51.598;7.668;2022-12-11T13:49:29;28.40;;;14.68;;
29382;SDS011;16365;51.598;7.668;2022-12-11T13:52:00;32.75;;;15.25;;
29382;SDS011;16365;51.598;7.668;2022-12-11T13:54:31;31.05;;;15.00;;
29382;SDS011;16365;51.598;7.668;2022-12-11T13:59:40;33.30;;;15.90;;
29382;SDS011;16365;51.598;7.668;2022-12-11T14:05:14;35.92;;;16.70;;
29382;SDS011;16365;51.598;7.668;2022-12-11T14:07:48;34.70;;;16.30;;
29382;SDS011;16365;51.598;7.668;2022-12-11T14:10:17;33.22;;;15.27;;
29382;SDS011;16365;51.598;7.668;2022-12-11T14:12:48;31.80;;;14.32;;
29382;SDS011;16365;51.598;7.668;2022-12-11T14:15:26;33.20;;;16.90;;
29382;SDS011;16365;51.598;7.668;2022-12-11T14:20:23;29.75;;;15.13;;
29382;SDS011;16365;51.598;7.668;2022-12-11T14:23:15;31.73;;;15.13;;
29382;SDS011;16365;51.598;7.668;2022-12-11T14:25:56;34.67;;;16.67;;
29382;SDS011;16365;51.598;7.668;2022-12-11T14:28:26;30.90;;;14.55;;
29382;SDS011;16365;51.598;7.668;2022-12-11T14:30:55;28.75;;;15.45;;
29382;SDS011;16365;51.598;7.668;2022-12-11T14:33:25;30.40;;;14.68;;
29382;SDS011;16365;51.598;7.668;2022-12-11T14:35:57;35.78;;;15.07;;
29382;SDS011;16365;51.598;7.668;2022-12-11T14:38:36;29.70;;;15.38;;
29382;SDS011;16365;51.598;7.668;2022-12-11T14:41:12;38.65;;;16.83;;
29382;SDS011;16365;51.598;7.668;2022-12-11T14:43:44;30.05;;;14.75;;
29382;SDS011;16365;51.598;7.668;2022-12-11T14:46:21;30.80;;;15.38;;
29382;SDS011;16365;51.598;7.668;2022-12-11T14:48:54;32.83;;;16.05;;
29382;SDS011;16365;51.598;7.668;2022-12-11T14:51:30;31.52;;;15.25;;
29382;SDS011;16365;51.598;7.668;2022-12-11T14:54:01;31.88;;;16.08;;
29382;SDS011;16365;51.598;7.668;2022-12-11T14:56:29;29.70;;;14.90;;
29382;SDS011;16365;51.598;7.668;2022-12-11T14:58:59;34.10;;;16.23;;
29382;SDS011;16365;51.598;7.668;2022-12-11T15:06:45;32.45;;;15.52;;
29382;SDS011;16365;51.598;7.668;2022-12-11T15:12:07;34.00;;;16.02;;
29382;SDS011;16365;51.598;7.668;2022-12-11T15:14:40;31.52;;;14.93;;
29382;SDS011;16365;51.598;7.668;2022-12-11T15:17:13;37.78;;;16.17;;
29382;SDS011;16365;51.598;7.668;2022-12-11T15:19:40;32.67;;;16.02;;
29382;SDS011;16365;51.598;7.668;2022-12-11T15:22:16;33.45;;;16.20;;
29382;SDS011;16365;51.598;7.668;2022-12-11T15:24:44;34.38;;;15.90;;
29382;SDS011;16365;51.598;7.668;2022-12-11T15:27:25;42.33;;;17.27;;
29382;SDS011;16365;51.598;7.668;2022-12-11T15:29:58;33.88;;;16.42;;
29382;SDS011;16365;51.598;7.668;2022-12-11T15:32:24;34.17;;;16.25;;
29382;SDS011;16365;51.598;7.668;2022-12-11T15:37:25;33.40;;;15.20;;
29382;SDS011;16365;51.598;7.668;2022-12-11T15:39:55;33.92;;;15.63;;
29382;SDS011;16365;51.598;7.668;2022-12-11T15:42:31;32.78;;;14.88;;
29382;SDS011;16365;51.598;7.668;2022-12-11T15:45:00;32.00;;;14.98;;
29382;SDS011;16365;51.598;7.668;2022-12-11T15:47:28;32.35;;;16.88;;
29382;SDS011;16365;51.598;7.668;2022-12-11T15:49:57;34.35;;;16.40;;
29382;SDS011;16365;51.598;7.668;2022-12-11T15:52:25;36.50;;;18.40;;
29382;SDS011;16365;51.598;7.668;2022-12-11T15:54:51;34.00;;;16.27;;
29382;SDS011;16365;51.598;7.668;2022-12-11T15:57:21;35.38;;;16.40;;
29382;SDS011;16365;51.598;7.668;2022-12-11T15:59:49;34.67;;;16.38;;
29382;SDS011;16365;51.598;7.668;2022-12-11T16:02:17;32.00;;;15.10;;
29382;SDS011;16365;51.598;7.668;2022-12-11T16:04:44;33.55;;;15.60;;
29382;SDS011;16365;51.598;7.668;2022-12-11T16:07:20;38.90;;;17.98;;
29382;SDS011;16365;51.598;7.668;2022-12-11T16:09:48;39.92;;;18.55;;
29382;SDS011;16365;51.598;7.668;2022-12-11T16:12:15;36.13;;;16.65;;
29382;SDS011;16365;51.598;7.668;2022-12-11T16:14:42;34.45;;;16.17;;